Time;durP1;ratioP1;P1;durP2;ratioP2;P2;SDS_P1;SDS_P2;PMS_P1;PMS_P2;Temp;Humidity;BMP_temperature;BMP_pressure;BME280_temperature;BME280_humidity;BME280_pressure;Samples;Min_cycle;Max_cycle;Signal;HPM_P1;HPM_P2
2021/12/08 00:00:51;;;;;;;;;;;19.60;54.80;;;;;;5064980;28;43067;-77
2021/12/08 00:03:17;;;;;;;;;;;19.70;54.40;;;;;;5065847;28;42995;-77
2021/12/08 00:05:44;;;;;;;;;;;19.60;54.40;;;;;;5065187;28;42992;-77
2021/12/08 00:08:11;;;;;;;;;;;19.60;54.20;;;;;;5066047;28;42906;-78
2021/12/08 00:13:04;;;;;;;;;;;19.60;54.20;;;;;;5065561;28;42952;-78
2021/12/08 00:15:31;;;;;;;;;;;19.60;54.20;;;;;;5064156;28;43015;-77
2021/12/08 00:17:57;;;;;;;;;;;19.50;54.30;;;;;;5066013;28;42884;-76
2021/12/08 00:20:23;;;;;;;;;;;19.50;54.80;;;;;;5065993;28;42932;-77
2021/12/08 00:22:48;;;;;;;;;;;19.50;54.20;;;;;;5063246;28;44412;-77
2021/12/08 00:25:14;;;;;;;;;;;19.50;54.40;;;;;;5064453;28;43046;-76
2021/12/08 00:27:40;;;;;;;;;;;19.50;54.20;;;;;;5065165;28;42995;-77
2021/12/08 00:30:06;;;;;;;;;;;19.60;54.40;;;;;;5054054;28;43100;-77
2021/12/08 00:32:34;;;;;;;;;;;19.90;54.30;;;;;;5065902;28;43958;-77
2021/12/08 00:35:00;;;;;;;;;;;19.60;54.30;;;;;;5065921;28;43023;-77
2021/12/08 00:37:27;;;;;;;;;;;19.50;54.30;;;;;;5065598;28;43072;-78
2021/12/08 00:39:53;;;;;;;;;;;19.60;54.30;;;;;;5065018;28;42838;-78
2021/12/08 00:42:19;;;;;;;;;;;19.40;54.30;;;;;;5065796;28;42857;-77
2021/12/08 00:44:44;;;;;;;;;;;19.50;54.30;;;;;;5065832;28;42886;-78
2021/12/08 00:47:10;;;;;;;;;;;19.50;54.30;;;;;;5065490;28;43056;-76
2021/12/08 00:49:36;;;;;;;;;;;20.20;54.70;;;;;;5065892;28;42975;-77
2021/12/08 00:52:02;;;;;;;;;;;19.50;54.30;;;;;;5065657;28;44319;-76
2021/12/08 00:54:28;;;;;;;;;;;19.50;54.10;;;;;;5066238;28;43055;-77
2021/12/08 00:56:53;;;;;;;;;;;19.50;54.10;;;;;;5066184;28;43168;-78
2021/12/08 00:59:19;;;;;;;;;;;19.50;54.10;;;;;;5065486;28;42951;-78
2021/12/08 01:01:44;;;;;;;;;;;19.50;54.50;;;;;;5065166;28;42926;-77
2021/12/08 01:04:10;;;;;;;;;;;19.50;54.30;;;;;;5065574;28;42885;-78
2021/12/08 01:06:35;;;;;;;;;;;19.60;54.30;;;;;;5065814;28;43364;-78
2021/12/08 01:09:01;;;;;;;;;;;19.60;54.50;;;;;;5065914;28;42850;-78
2021/12/08 01:11:27;;;;;;;;;;;19.50;54.20;;;;;;5065030;28;43079;-77
2021/12/08 01:13:52;;;;;;;;;;;19.70;54.30;;;;;;5064224;28;42760;-78
2021/12/08 01:16:19;;;;;;;;;;;19.60;54.10;;;;;;5065597;28;42882;-77
2021/12/08 01:18:45;;;;;;;;;;;19.50;54.00;;;;;;5064579;28;43036;-76
2021/12/08 01:21:10;;;;;;;;;;;19.60;53.90;;;;;;5065396;28;43414;-77
2021/12/08 01:23:37;;;;;;;;;;;19.50;54.20;;;;;;5065319;28;42814;-77
2021/12/08 01:26:03;;;;;;;;;;;19.60;54.00;;;;;;5064576;28;42983;-78
2021/12/08 01:28:28;;;;;;;;;;;19.70;54.20;;;;;;5064698;28;42956;-77
2021/12/08 01:30:55;;;;;;;;;;;19.50;53.90;;;;;;5065240;28;42883;-77
2021/12/08 01:33:23;;;;;;;;;;;19.60;54.00;;;;;;5064994;28;42743;-77
2021/12/08 01:35:49;;;;;;;;;;;19.50;53.80;;;;;;5065064;28;43320;-77
2021/12/08 01:38:15;;;;;;;;;;;19.50;53.90;;;;;;5064510;28;43079;-75
2021/12/08 01:40:40;;;;;;;;;;;19.50;54.00;;;;;;5064936;28;43313;-76
2021/12/08 01:43:12;;;;;;;;;;;19.50;54.00;;;;;;5064034;28;42930;-76
2021/12/08 01:48:22;;;;;;;;;;;19.50;53.90;;;;;;5064060;28;43020;-76
2021/12/08 01:50:52;;;;;;;;;;;19.60;54.00;;;;;;5064443;28;43463;-76
2021/12/08 01:53:18;;;;;;;;;;;19.50;53.50;;;;;;5064922;28;42926;-76
2021/12/08 01:55:44;;;;;;;;;;;19.50;53.90;;;;;;5064294;28;42912;-77
2021/12/08 01:58:10;;;;;;;;;;;19.50;53.90;;;;;;5063795;28;42949;-76
2021/12/08 02:00:38;;;;;;;;;;;19.50;53.80;;;;;;5064217;28;42790;-76
2021/12/08 02:03:04;;;;;;;;;;;19.50;53.90;;;;;;5064625;28;42958;-76
2021/12/08 02:05:30;;;;;;;;;;;19.60;54.10;;;;;;5064407;28;43445;-76
2021/12/08 02:07:56;;;;;;;;;;;19.50;54.00;;;;;;5064178;28;43016;-77
2021/12/08 02:10:22;;;;;;;;;;;19.50;53.90;;;;;;5064462;28;42976;-76
2021/12/08 02:12:48;;;;;;;;;;;19.70;54.10;;;;;;5064365;28;43080;-77
2021/12/08 02:15:16;;;;;;;;;;;19.30;54.00;;;;;;5066889;28;42837;-78
2021/12/08 02:17:42;;;;;;;;;;;19.50;53.80;;;;;;5067012;28;43111;-76
2021/12/08 02:20:09;;;;;;;;;;;19.60;54.10;;;;;;5065612;28;42887;-77
2021/12/08 02:22:35;;;;;;;;;;;19.50;53.80;;;;;;5052234;28;42988;-78
2021/12/08 02:25:00;;;;;;;;;;;19.50;53.90;;;;;;5061991;28;43630;-77
2021/12/08 02:27:26;;;;;;;;;;;19.50;53.90;;;;;;5066543;28;42993;-76
2021/12/08 02:29:57;;;;;;;;;;;19.50;54.00;;;;;;5046269;28;42931;-78
2021/12/08 02:46:36;;;;;;;;;;;19.50;54.00;;;;;;5063936;28;42983;-79
2021/12/08 02:48:51;;;;;;;;;;;19.50;53.50;;;;;;5065087;28;42905;-78
2021/12/08 02:51:16;;;;;;;;;;;19.60;54.00;;;;;;5066348;28;43656;-78
2021/12/08 02:53:42;;;;;;;;;;;19.50;53.90;;;;;;5066394;28;43063;-78
2021/12/08 02:56:07;;;;;;;;;;;19.40;53.90;;;;;;5065822;28;43828;-77
2021/12/08 02:58:33;;;;;;;;;;;19.50;53.90;;;;;;5065926;28;43130;-77
2021/12/08 03:01:01;;;;;;;;;;;19.40;53.90;;;;;;5064956;28;43648;-77
2021/12/08 03:03:26;;;;;;;;;;;19.50;53.80;;;;;;5065752;28;43018;-78
2021/12/08 03:05:52;;;;;;;;;;;19.40;53.90;;;;;;5047660;28;43686;-77
2021/12/08 03:08:18;;;;;;;;;;;19.50;53.80;;;;;;5049893;28;42911;-78
2021/12/08 03:10:45;;;;;;;;;;;19.50;54.10;;;;;;5066190;28;42829;-78
2021/12/08 03:13:11;;;;;;;;;;;19.50;53.90;;;;;;5065839;28;43118;-79
2021/12/08 03:15:37;;;;;;;;;;;19.30;53.70;;;;;;4998436;28;1916466;-79
2021/12/08 03:18:03;;;;;;;;;;;19.50;53.90;;;;;;5065140;28;42850;-79
2021/12/08 03:20:39;;;;;;;;;;;19.50;53.90;;;;;;5066200;28;43824;-78
2021/12/08 03:23:06;;;;;;;;;;;19.50;53.90;;;;;;5066773;28;43021;-78
2021/12/08 03:25:37;;;;;;;;;;;19.40;54.00;;;;;;5065824;28;43343;-78
2021/12/08 03:28:18;;;;;;;;;;;19.40;53.70;;;;;;5066663;28;43202;-78
2021/12/08 03:31:01;;;;;;;;;;;19.50;53.90;;;;;;5065543;28;42948;-78
2021/12/08 03:33:26;;;;;;;;;;;19.40;53.60;;;;;;5066232;28;43092;-77
2021/12/08 03:35:52;;;;;;;;;;;19.50;53.80;;;;;;5066208;28;43381;-78
2021/12/08 03:38:18;;;;;;;;;;;19.40;53.80;;;;;;5066536;28;42783;-78
2021/12/08 03:40:45;;;;;;;;;;;19.50;53.50;;;;;;5065414;28;43473;-78
2021/12/08 03:43:12;;;;;;;;;;;19.70;53.80;;;;;;5066216;28;43135;-78
2021/12/08 03:45:43;;;;;;;;;;;19.40;53.80;;;;;;5065704;28;42837;-77
2021/12/08 03:48:11;;;;;;;;;;;19.50;53.90;;;;;;5063789;28;42996;-77
2021/12/08 03:50:37;;;;;;;;;;;19.40;54.00;;;;;;5065957;28;43344;-77
2021/12/08 03:53:04;;;;;;;;;;;19.40;54.20;;;;;;5065594;28;42818;-77
2021/12/08 03:55:30;;;;;;;;;;;19.50;54.20;;;;;;5065642;28;43428;-77
2021/12/08 03:57:55;;;;;;;;;;;19.50;54.10;;;;;;5066335;28;44173;-78
2021/12/08 04:00:23;;;;;;;;;;;19.50;54.30;;;;;;5065267;28;43092;-79
2021/12/08 04:02:49;;;;;;;;;;;19.50;54.60;;;;;;5064223;28;43168;-78
2021/12/08 04:05:20;;;;;;;;;;;19.50;54.50;;;;;;5065013;28;43025;-76
2021/12/08 04:07:51;;;;;;;;;;;19.50;54.60;;;;;;5065524;28;43745;-76
2021/12/08 04:10:19;;;;;;;;;;;19.50;54.30;;;;;;5065964;28;42931;-78
2021/12/08 04:12:50;;;;;;;;;;;19.50;54.90;;;;;;5066428;28;42877;-75
2021/12/08 04:15:17;;;;;;;;;;;19.40;53.90;;;;;;5065301;28;43818;-78
2021/12/08 04:17:45;;;;;;;;;;;19.40;54.80;;;;;;5065883;28;43103;-77
2021/12/08 04:20:18;;;;;;;;;;;19.60;54.80;;;;;;5066064;28;43331;-76
2021/12/08 04:22:45;;;;;;;;;;;19.50;54.40;;;;;;5065921;28;42980;-78
2021/12/08 04:25:13;;;;;;;;;;;19.50;54.50;;;;;;5066175;28;42944;-78
2021/12/08 04:27:40;;;;;;;;;;;19.40;54.70;;;;;;5065516;28;42940;-78
2021/12/08 04:30:08;;;;;;;;;;;19.40;54.50;;;;;;5065727;28;42768;-78
2021/12/08 04:32:34;;;;;;;;;;;19.40;54.40;;;;;;5065061;28;42928;-76
2021/12/08 04:35:00;;;;;;;;;;;19.60;54.60;;;;;;5065361;28;43391;-78
2021/12/08 04:37:30;;;;;;;;;;;19.40;54.70;;;;;;5063731;28;42980;-77
2021/12/08 04:42:49;;;;;;;;;;;19.60;54.50;;;;;;5064819;28;42921;-76
2021/12/08 04:45:24;;;;;;;;;;;19.50;54.40;;;;;;5065032;28;43049;-78
2021/12/08 04:48:08;;;;;;;;;;;19.50;54.30;;;;;;5064268;28;42834;-77
2021/12/08 04:51:06;;;;;;;;;;;19.50;54.60;;;;;;5064572;28;43459;-77
2021/12/08 05:07:16;;;;;;;;;;;19.50;54.50;;;;;;5057590;28;43078;-77
2021/12/08 05:09:42;;;;;;;;;;;19.60;54.40;;;;;;5064182;28;42928;-76
2021/12/08 05:12:28;;;;;;;;;;;19.40;54.40;;;;;;5064485;28;43915;-76
2021/12/08 05:15:15;;;;;;;;;;;19.50;54.30;;;;;;5054512;28;43346;-77
2021/12/08 05:18:00;;;;;;;;;;;19.40;54.40;;;;;;5064742;28;43062;-78
2021/12/08 05:20:45;;;;;;;;;;;19.40;53.80;;;;;;5064402;28;42901;-76
2021/12/08 05:23:14;;;;;;;;;;;19.50;54.50;;;;;;5063578;28;42987;-77
2021/12/08 05:25:41;;;;;;;;;;;19.50;54.30;;;;;;5065211;28;42869;-78
2021/12/08 05:28:08;;;;;;;;;;;19.60;54.40;;;;;;5064156;28;43265;-79
2021/12/08 05:30:36;;;;;;;;;;;19.40;54.40;;;;;;5064607;28;42757;-78
2021/12/08 05:33:03;;;;;;;;;;;19.50;54.40;;;;;;5063301;28;43472;-79
2021/12/08 05:35:28;;;;;;;;;;;19.40;54.40;;;;;;5064463;28;42961;-75
2021/12/08 05:37:54;;;;;;;;;;;19.40;54.30;;;;;;5064905;28;42953;-78
2021/12/08 05:40:31;;;;;;;;;;;19.50;54.70;;;;;;5064462;28;43000;-77
2021/12/08 05:42:57;;;;;;;;;;;19.40;54.30;;;;;;5064507;28;42910;-78
2021/12/08 05:45:23;;;;;;;;;;;19.60;54.30;;;;;;5064069;28;43543;-78
2021/12/08 05:47:49;;;;;;;;;;;19.50;54.30;;;;;;5063052;28;44007;-78
2021/12/08 05:50:18;;;;;;;;;;;19.50;54.30;;;;;;5064484;28;42993;-77
2021/12/08 05:52:44;;;;;;;;;;;19.50;54.60;;;;;;5064023;27;42894;-77
2021/12/08 05:55:09;;;;;;;;;;;19.50;54.70;;;;;;5064703;28;43024;-78
2021/12/08 05:57:37;;;;;;;;;;;19.60;54.70;;;;;;5064238;28;43071;-78
2021/12/08 06:00:09;;;;;;;;;;;19.50;54.50;;;;;;5064639;28;42867;-78
2021/12/08 06:02:36;;;;;;;;;;;19.50;54.50;;;;;;5064309;28;42941;-78
2021/12/08 06:05:03;;;;;;;;;;;19.50;54.50;;;;;;5063635;28;42941;-78
2021/12/08 06:07:29;;;;;;;;;;;19.60;54.50;;;;;;5064511;28;43461;-77
2021/12/08 06:09:56;;;;;;;;;;;19.50;54.80;;;;;;5064861;28;43146;-78
2021/12/08 06:12:22;;;;;;;;;;;19.50;54.60;;;;;;5064653;28;42763;-78
2021/12/08 06:14:53;;;;;;;;;;;19.40;54.80;;;;;;5063553;28;43032;-78
2021/12/08 06:17:19;;;;;;;;;;;19.40;54.50;;;;;;5063891;28;43457;-77
2021/12/08 06:19:46;;;;;;;;;;;19.50;54.50;;;;;;5064631;28;42983;-77
2021/12/08 06:22:12;;;;;;;;;;;19.30;54.40;;;;;;5063324;28;43779;-77
2021/12/08 06:24:38;;;;;;;;;;;19.60;54.60;;;;;;5064876;28;42910;-77
2021/12/08 06:27:04;;;;;;;;;;;19.50;54.60;;;;;;5064585;28;43565;-77
2021/12/08 06:29:30;;;;;;;;;;;19.50;54.70;;;;;;5063696;28;42857;-79
2021/12/08 06:31:57;;;;;;;;;;;19.40;54.80;;;;;;5064078;28;43615;-78
2021/12/08 06:34:23;;;;;;;;;;;19.50;55.10;;;;;;5059821;28;43021;-78
2021/12/08 06:36:51;;;;;;;;;;;19.40;54.50;;;;;;5063515;28;43588;-75
2021/12/08 06:39:19;;;;;;;;;;;19.50;54.40;;;;;;5062076;28;43249;-76
2021/12/08 06:41:49;;;;;;;;;;;19.40;54.10;;;;;;5063352;28;43723;-74
2021/12/08 06:44:17;;;;;;;;;;;19.50;54.20;;;;;;5063197;28;43000;-76
2021/12/08 06:46:43;;;;;;;;;;;18.50;53.80;;;;;;5061734;27;44511;-80
2021/12/08 06:49:10;;;;;;;;;;;19.50;53.60;;;;;;5062710;28;43045;-76
2021/12/08 06:51:40;;;;;;;;;;;19.40;53.00;;;;;;5063368;28;42886;-78
2021/12/08 06:54:08;;;;;;;;;;;20.30;53.90;;;;;;5063678;28;43006;-75
2021/12/08 06:56:39;;;;;;;;;;;19.40;53.00;;;;;;5062999;28;43770;-79
2021/12/08 06:59:08;;;;;;;;;;;19.60;53.30;;;;;;5062619;28;42991;-79
2021/12/08 07:01:46;;;;;;;;;;;19.50;53.20;;;;;;5065297;28;43168;-76
2021/12/08 07:04:28;;;;;;;;;;;19.60;52.90;;;;;;5066926;28;43108;-77
2021/12/08 07:07:02;;;;;;;;;;;19.40;53.70;;;;;;5065308;28;45232;-82
2021/12/08 07:09:57;;;;;;;;;;;19.40;54.00;;;;;;5066544;28;43006;-77
2021/12/08 07:12:32;;;;;;;;;;;19.50;53.10;;;;;;5060384;28;45349;-78
2021/12/08 07:15:05;;;;;;;;;;;19.40;52.90;;;;;;5066554;28;42853;-79
2021/12/08 07:17:32;;;;;;;;;;;19.40;52.90;;;;;;5066303;28;43408;-81
2021/12/08 07:22:51;;;;;;;;;;;19.50;53.80;;;;;;5064688;28;43041;-79
2021/12/08 07:25:19;;;;;;;;;;;19.50;54.20;;;;;;5066011;28;43026;-77
2021/12/08 07:27:44;;;;;;;;;;;19.40;54.70;;;;;;5066246;28;43554;-80
2021/12/08 07:30:15;;;;;;;;;;;19.50;53.90;;;;;;5066745;28;42973;-77
2021/12/08 07:32:41;;;;;;;;;;;19.50;53.30;;;;;;5065274;28;45346;-79
2021/12/08 07:35:10;;;;;;;;;;;19.40;53.80;;;;;;5066239;28;42909;-80
2021/12/08 07:37:35;;;;;;;;;;;19.50;53.60;;;;;;5065307;28;43795;-80
2021/12/08 07:40:01;;;;;;;;;;;19.50;53.80;;;;;;5065896;28;42790;-81
2021/12/08 07:42:32;;;;;;;;;;;19.50;53.70;;;;;;5064404;28;43737;-81
2021/12/08 07:45:00;;;;;;;;;;;19.40;53.20;;;;;;5064765;28;43072;-80
2021/12/08 07:47:27;;;;;;;;;;;19.60;53.90;;;;;;5066100;28;43465;-77
2021/12/08 07:50:18;;;;;;;;;;;19.50;53.80;;;;;;5062364;28;42929;-81
2021/12/08 07:52:45;;;;;;;;;;;19.40;51.50;;;;;;5040933;28;43610;-80
2021/12/08 07:55:14;;;;;;;;;;;19.40;43.20;;;;;;5066310;28;42932;-81
2021/12/08 07:57:39;;;;;;;;;;;19.40;41.70;;;;;;5066333;28;43502;-81
2021/12/08 08:00:10;;;;;;;;;;;19.30;39.90;;;;;;5066295;28;43273;-82
2021/12/08 08:02:35;;;;;;;;;;;19.10;39.00;;;;;;5065254;28;42802;-82
2021/12/08 08:05:04;;;;;;;;;;;19.10;38.90;;;;;;5066176;28;42964;-82
2021/12/08 08:07:31;;;;;;;;;;;19.10;39.20;;;;;;5065504;28;43563;-82
2021/12/08 08:10:00;;;;;;;;;;;18.90;39.00;;;;;;5066332;28;42910;-80
2021/12/08 08:12:28;;;;;;;;;;;18.90;39.40;;;;;;5064174;28;43785;-79
2021/12/08 08:14:57;;;;;;;;;;;18.80;39.20;;;;;;5066124;28;42804;-80
2021/12/08 08:17:29;;;;;;;;;;;19.10;39.30;;;;;;5062259;28;43302;-80
2021/12/08 08:19:55;;;;;;;;;;;18.70;39.10;;;;;;5061775;28;43514;-79
2021/12/08 08:22:26;;;;;;;;;;;18.70;39.20;;;;;;5075015;27;43593;-80
2021/12/08 08:24:53;;;;;;;;;;;18.60;39.30;;;;;;5065895;28;42752;-80
2021/12/08 08:27:18;;;;;;;;;;;18.50;39.90;;;;;;5063694;28;44247;-81
2021/12/08 08:29:44;;;;;;;;;;;18.70;40.90;;;;;;5064344;28;42822;-80
2021/12/08 08:32:16;;;;;;;;;;;19.60;42.30;;;;;;5062046;28;42940;-82
2021/12/08 08:34:44;;;;;;;;;;;18.60;41.90;;;;;;5065136;28;43005;-82
2021/12/08 08:37:16;;;;;;;;;;;18.60;42.40;;;;;;5062946;28;45429;-82
2021/12/08 08:39:43;;;;;;;;;;;18.70;42.70;;;;;;5064362;28;43041;-82
2021/12/08 08:42:16;;;;;;;;;;;18.60;43.10;;;;;;5064095;28;42892;-82
2021/12/08 08:45:00;;;;;;;;;;;18.70;42.80;;;;;;5065318;28;42774;-81
2021/12/08 08:47:32;;;;;;;;;;;18.80;43.20;;;;;;5058766;28;44175;-81
2021/12/08 08:49:58;;;;;;;;;;;18.80;43.30;;;;;;5065399;28;42969;-80
2021/12/08 08:52:33;;;;;;;;;;;18.80;44.10;;;;;;5064679;28;43085;-82
2021/12/08 08:55:00;;;;;;;;;;;18.80;43.60;;;;;;5065745;28;42984;-82
2021/12/08 08:57:29;;;;;;;;;;;18.70;44.30;;;;;;5064411;28;45174;-80
2021/12/08 09:00:21;;;;;;;;;;;18.80;44.60;;;;;;5064728;28;42798;-77
2021/12/08 09:02:48;;;;;;;;;;;18.90;44.50;;;;;;5052331;28;42946;-78
2021/12/08 09:05:13;;;;;;;;;;;18.90;46.30;;;;;;5064813;28;43047;-80
2021/12/08 09:07:41;;;;;;;;;;;18.90;46.40;;;;;;5064253;28;43080;-80
2021/12/08 09:10:09;;;;;;;;;;;18.90;46.60;;;;;;5063998;28;43103;-79
2021/12/08 09:12:52;;;;;;;;;;;19.00;47.00;;;;;;5063330;28;43769;-80
2021/12/08 09:15:24;;;;;;;;;;;18.90;46.30;;;;;;5063585;28;43704;-80
2021/12/08 09:17:56;;;;;;;;;;;18.90;46.60;;;;;;5064485;28;43031;-79
2021/12/08 09:20:29;;;;;;;;;;;19.00;46.70;;;;;;5064491;28;43095;-80
2021/12/08 09:22:59;;;;;;;;;;;19.00;46.90;;;;;;5063954;28;43020;-79
2021/12/08 09:25:30;;;;;;;;;;;19.00;48.10;;;;;;5064385;28;43080;-79
2021/12/08 09:27:56;;;;;;;;;;;18.90;47.80;;;;;;5064413;28;43574;-79
2021/12/08 09:30:32;;;;;;;;;;;19.00;44.60;;;;;;5063827;28;43054;-78
2021/12/08 09:33:01;;;;;;;;;;;19.00;42.50;;;;;;5057401;28;43043;-81
2021/12/08 09:35:30;;;;;;;;;;;18.70;42.20;;;;;;5060664;28;43053;-81
2021/12/08 09:38:00;;;;;;;;;;;18.80;41.70;;;;;;5065159;28;42852;-81
2021/12/08 09:40:32;;;;;;;;;;;18.70;41.10;;;;;;5065165;28;43095;-81
2021/12/08 09:43:04;;;;;;;;;;;18.60;41.60;;;;;;5066726;28;42865;-81
2021/12/08 09:45:33;;;;;;;;;;;18.70;41.70;;;;;;5085336;28;42945;-81
2021/12/08 09:48:06;;;;;;;;;;;18.80;41.90;;;;;;5085381;27;43151;-81
2021/12/08 09:50:31;;;;;;;;;;;18.40;41.20;;;;;;5085361;27;43079;-81
2021/12/08 09:52:57;;;;;;;;;;;18.60;42.30;;;;;;5085387;27;43852;-81
2021/12/08 09:55:23;;;;;;;;;;;18.40;42.20;;;;;;5085032;27;42964;-81
2021/12/08 09:57:49;;;;;;;;;;;18.50;42.30;;;;;;5085017;27;43523;-81
2021/12/08 10:00:19;;;;;;;;;;;18.40;42.50;;;;;;5084386;27;43273;-81
2021/12/08 10:02:44;;;;;;;;;;;18.30;42.60;;;;;;5084505;28;42963;-81
2021/12/08 10:05:13;;;;;;;;;;;18.30;42.70;;;;;;5084972;28;42979;-81
2021/12/08 10:07:40;;;;;;;;;;;18.20;42.50;;;;;;5085214;27;42892;-81
2021/12/08 10:10:07;;;;;;;;;;;18.10;42.20;;;;;;5085319;27;43110;-81
2021/12/08 10:12:34;;;;;;;;;;;18.10;42.10;;;;;;5084971;28;43066;-81
2021/12/08 10:15:01;;;;;;;;;;;18.20;42.30;;;;;;5084363;27;42755;-81
2021/12/08 10:17:27;;;;;;;;;;;18.20;42.50;;;;;;5084544;27;42739;-81
2021/12/08 10:20:18;;;;;;;;;;;18.10;42.00;;;;;;5084953;27;42956;-81
2021/12/08 10:22:46;;;;;;;;;;;18.10;41.10;;;;;;5067894;27;43489;-81
2021/12/08 10:25:14;;;;;;;;;;;18.10;41.60;;;;;;5085098;27;42832;-81
2021/12/08 10:27:58;;;;;;;;;;;18.10;41.70;;;;;;5084790;27;44107;-81
2021/12/08 10:30:24;;;;;;;;;;;17.90;41.40;;;;;;5085153;27;42762;-81
2021/12/08 10:32:50;;;;;;;;;;;17.90;42.50;;;;;;5084993;27;42885;-81
2021/12/08 10:35:39;;;;;;;;;;;17.90;42.80;;;;;;5087288;27;42864;-80
2021/12/08 10:38:05;;;;;;;;;;;17.80;42.30;;;;;;5088761;27;43571;-80
2021/12/08 10:40:30;;;;;;;;;;;17.80;42.90;;;;;;5088775;27;42933;-81
2021/12/08 10:42:56;;;;;;;;;;;17.70;43.00;;;;;;5088198;28;43645;-81
2021/12/08 10:45:26;;;;;;;;;;;17.80;43.40;;;;;;5087644;27;42898;-81
2021/12/08 10:47:55;;;;;;;;;;;17.60;43.50;;;;;;5087750;27;42918;-81
2021/12/08 10:55:58;;;;;;;;;;;17.50;43.80;;;;;;5087681;28;42963;-80
2021/12/08 10:58:31;;;;;;;;;;;17.50;44.40;;;;;;5087675;28;43823;-80
2021/12/08 11:00:58;;;;;;;;;;;17.50;44.10;;;;;;5087319;27;42888;-80
2021/12/08 11:03:28;;;;;;;;;;;17.50;44.80;;;;;;5087989;27;44233;-80
2021/12/08 11:05:55;;;;;;;;;;;17.40;45.00;;;;;;5088437;27;42720;-81
2021/12/08 11:08:26;;;;;;;;;;;17.60;45.30;;;;;;5088212;27;43475;-80
2021/12/08 11:10:53;;;;;;;;;;;17.30;44.90;;;;;;5087639;27;42987;-81
2021/12/08 11:13:20;;;;;;;;;;;17.30;45.80;;;;;;5087993;27;42924;-81
2021/12/08 11:15:47;;;;;;;;;;;17.30;46.30;;;;;;5087875;27;42977;-81
2021/12/08 11:18:15;;;;;;;;;;;17.40;46.50;;;;;;5087594;27;43481;-81
2021/12/08 11:20:44;;;;;;;;;;;17.20;46.60;;;;;;5088217;27;43119;-81
2021/12/08 11:23:14;;;;;;;;;;;17.20;46.90;;;;;;5086587;28;44503;-81
2021/12/08 11:25:41;;;;;;;;;;;17.30;47.30;;;;;;5088027;27;42936;-81
2021/12/08 11:28:33;;;;;;;;;;;17.20;47.50;;;;;;5088132;27;42751;-81
2021/12/08 11:31:04;;;;;;;;;;;17.20;47.50;;;;;;5087866;27;42958;-80
2021/12/08 11:33:30;;;;;;;;;;;17.30;47.90;;;;;;5087869;27;42905;-81
2021/12/08 11:36:06;;;;;;;;;;;17.20;48.70;;;;;;5086044;28;42976;-81
2021/12/08 11:38:32;;;;;;;;;;;17.10;48.50;;;;;;5087368;27;43530;-81
2021/12/08 11:40:57;;;;;;;;;;;16.90;49.20;;;;;;5087594;27;43086;-82
2021/12/08 11:43:30;;;;;;;;;;;17.00;49.70;;;;;;5087610;28;43118;-82
2021/12/08 11:46:15;;;;;;;;;;;17.00;49.50;;;;;;5086664;27;42869;-82
2021/12/08 11:49:08;;;;;;;;;;;17.00;49.50;;;;;;5086771;27;42886;-81
2021/12/08 11:51:49;;;;;;;;;;;17.00;49.80;;;;;;5087955;27;42723;-82
2021/12/08 11:54:32;;;;;;;;;;;17.00;50.50;;;;;;5087334;27;43491;-81
2021/12/08 11:57:04;;;;;;;;;;;16.90;50.10;;;;;;5087438;27;43139;-81
2021/12/08 11:59:30;;;;;;;;;;;17.10;50.40;;;;;;5086907;27;43573;-82
2021/12/08 12:01:55;;;;;;;;;;;16.90;50.80;;;;;;5086566;27;42997;-82
2021/12/08 12:04:21;;;;;;;;;;;16.80;50.80;;;;;;5087328;27;42847;-82
2021/12/08 12:06:46;;;;;;;;;;;17.40;50.90;;;;;;5087432;27;43093;-82
2021/12/08 12:09:12;;;;;;;;;;;17.00;50.70;;;;;;5086852;28;42915;-82
2021/12/08 12:11:37;;;;;;;;;;;16.90;50.80;;;;;;5086683;27;42948;-81
2021/12/08 12:14:04;;;;;;;;;;;16.80;50.90;;;;;;5077443;27;43615;-79
2021/12/08 12:16:30;;;;;;;;;;;16.90;51.30;;;;;;5058679;28;43078;-78
2021/12/08 12:18:58;;;;;;;;;;;16.80;51.20;;;;;;5055154;28;43014;-76
2021/12/08 12:21:42;;;;;;;;;;;16.80;52.00;;;;;;5047190;28;43058;-80
2021/12/08 12:24:28;;;;;;;;;;;16.90;51.10;;;;;;5053167;28;42843;-83
2021/12/08 12:27:12;;;;;;;;;;;16.90;52.00;;;;;;5053530;28;43128;-79
2021/12/08 12:29:48;;;;;;;;;;;16.80;50.90;;;;;;5065518;28;42933;-76
2021/12/08 12:32:17;;;;;;;;;;;17.00;49.30;;;;;;5065369;28;42917;-81
2021/12/08 12:34:43;;;;;;;;;;;17.00;50.00;;;;;;5065127;28;42967;-78
2021/12/08 12:37:14;;;;;;;;;;;16.90;50.40;;;;;;5063719;28;43162;-82
2021/12/08 12:39:54;;;;;;;;;;;17.20;50.70;;;;;;5065187;28;43751;-77
2021/12/08 12:42:20;;;;;;;;;;;17.00;51.80;;;;;;5065614;28;42954;-76
2021/12/08 12:45:07;;;;;;;;;;;17.10;53.20;;;;;;5065173;28;43742;-78
2021/12/08 12:47:32;;;;;;;;;;;17.00;45.50;;;;;;5064507;28;43112;-77
2021/12/08 12:50:04;;;;;;;;;;;17.00;46.40;;;;;;5064210;28;43062;-76
2021/12/08 12:52:35;;;;;;;;;;;17.10;46.50;;;;;;5065487;28;42962;-77
2021/12/08 12:55:09;;;;;;;;;;;17.10;46.40;;;;;;5065585;28;42939;-75
2021/12/08 12:58:12;;;;;;;;;;;17.10;46.30;;;;;;5065016;28;42940;-79
2021/12/08 13:00:41;;;;;;;;;;;17.10;46.00;;;;;;5042608;28;43606;-76
2021/12/08 13:03:07;;;;;;;;;;;17.20;45.80;;;;;;5043274;28;42963;-77
2021/12/08 13:05:49;;;;;;;;;;;17.20;45.60;;;;;;5033038;28;43077;-77
2021/12/08 13:08:28;;;;;;;;;;;17.10;45.50;;;;;;5023613;28;42802;-76
2021/12/08 13:10:55;;;;;;;;;;;17.20;45.40;;;;;;5018987;28;44748;-77
2021/12/08 13:13:21;;;;;;;;;;;17.20;45.60;;;;;;5043088;28;42837;-77
2021/12/08 13:15:47;;;;;;;;;;;17.20;45.40;;;;;;5030339;28;42920;-75
2021/12/08 13:18:16;;;;;;;;;;;17.20;45.30;;;;;;5022693;28;43175;-79
2021/12/08 13:20:45;;;;;;;;;;;17.20;45.00;;;;;;5030373;28;44114;-77
2021/12/08 13:23:12;;;;;;;;;;;17.20;45.30;;;;;;5040721;28;42990;-77
2021/12/08 13:28:11;;;;;;;;;;;17.30;45.20;;;;;;5041812;28;43689;-75
2021/12/08 13:30:48;;;;;;;;;;;17.30;45.00;;;;;;5042053;28;43467;-76
2021/12/08 13:33:21;;;;;;;;;;;17.30;45.10;;;;;;5042600;28;43022;-75
2021/12/08 13:35:47;;;;;;;;;;;17.30;45.00;;;;;;5049693;28;43861;-75
2021/12/08 13:38:12;;;;;;;;;;;17.30;44.80;;;;;;5067731;28;42878;-76
2021/12/08 13:40:47;;;;;;;;;;;17.30;44.90;;;;;;5063902;28;42869;-75
2021/12/08 13:43:31;;;;;;;;;;;17.50;45.00;;;;;;5064264;28;43061;-76
2021/12/08 13:45:57;;;;;;;;;;;17.30;45.00;;;;;;5064595;28;43892;-75
2021/12/08 13:48:24;;;;;;;;;;;17.30;45.00;;;;;;5069151;28;42939;-75
2021/12/08 13:50:50;;;;;;;;;;;17.30;44.90;;;;;;5084874;27;43843;-76
2021/12/08 13:53:16;;;;;;;;;;;17.30;44.90;;;;;;5064715;28;42869;-75
2021/12/08 13:55:49;;;;;;;;;;;17.40;45.00;;;;;;5065197;28;42857;-74
2021/12/08 13:58:16;;;;;;;;;;;17.30;45.00;;;;;;5067851;28;42823;-80
2021/12/08 14:00:55;;;;;;;;;;;17.30;44.50;;;;;;5084430;27;42927;-75
2021/12/08 14:03:21;;;;;;;;;;;17.30;45.10;;;;;;5044227;28;42999;-74
2021/12/08 14:05:50;;;;;;;;;;;17.30;46.00;;;;;;5057004;28;43908;-74
2021/12/08 14:08:18;;;;;;;;;;;17.30;46.50;;;;;;5067850;27;43061;-78
2021/12/08 14:10:45;;;;;;;;;;;17.40;47.20;;;;;;5075089;27;43137;-78
2021/12/08 14:13:19;;;;;;;;;;;17.30;47.60;;;;;;5068454;28;43048;-80
2021/12/08 14:15:47;;;;;;;;;;;17.30;47.40;;;;;;5066400;28;42884;-76
2021/12/08 14:18:19;;;;;;;;;;;17.30;47.50;;;;;;5069316;28;42985;-76
2021/12/08 14:20:45;;;;;;;;;;;17.30;47.30;;;;;;5063334;28;43001;-75
2021/12/08 14:23:11;;;;;;;;;;;17.40;47.40;;;;;;5067119;28;42962;-77
2021/12/08 14:25:43;;;;;;;;;;;17.30;47.00;;;;;;5067503;28;43589;-77
2021/12/08 14:28:44;;;;;;;;;;;17.30;46.70;;;;;;5067524;28;42939;-77
2021/12/08 14:31:10;;;;;;;;;;;17.40;46.70;;;;;;5026177;28;43558;-81
2021/12/08 14:33:35;;;;;;;;;;;17.40;46.30;;;;;;5042236;28;42842;-78
2021/12/08 14:36:03;;;;;;;;;;;17.30;46.30;;;;;;5065465;28;43034;-76
2021/12/08 14:38:29;;;;;;;;;;;17.40;46.60;;;;;;5067779;28;43105;-78
2021/12/08 14:40:55;;;;;;;;;;;17.40;46.40;;;;;;5065634;28;44448;-77
2021/12/08 14:43:33;;;;;;;;;;;17.40;46.40;;;;;;5067969;28;43005;-80
2021/12/08 14:46:08;;;;;;;;;;;17.50;46.50;;;;;;5061844;28;43657;-81
2021/12/08 14:48:33;;;;;;;;;;;17.50;46.30;;;;;;5065935;28;42905;-75
2021/12/08 14:50:59;;;;;;;;;;;17.40;46.20;;;;;;5066128;28;42862;-75
2021/12/08 14:53:32;;;;;;;;;;;17.50;46.10;;;;;;5066501;28;43167;-78
2021/12/08 14:56:06;;;;;;;;;;;17.50;46.10;;;;;;5064261;28;43103;-75
2021/12/08 14:58:31;;;;;;;;;;;17.50;46.00;;;;;;5064811;28;42936;-79
2021/12/08 15:00:57;;;;;;;;;;;17.50;46.00;;;;;;5064581;28;42922;-75
2021/12/08 15:03:23;;;;;;;;;;;17.50;46.00;;;;;;5065170;28;42859;-75
2021/12/08 15:05:50;;;;;;;;;;;17.50;45.90;;;;;;5064490;28;43771;-79
2021/12/08 15:08:17;;;;;;;;;;;17.50;45.90;;;;;;5064815;28;43043;-74
2021/12/08 15:10:44;;;;;;;;;;;17.50;45.90;;;;;;5064227;28;43450;-75
2021/12/08 15:13:10;;;;;;;;;;;17.50;45.90;;;;;;5066320;28;43240;-76
2021/12/08 15:15:37;;;;;;;;;;;17.50;45.70;;;;;;5063600;28;44454;-75